sensor_id;sensor_type;location;lat;lon;timestamp;temperature;humidity
10538;DHT22;5317;49.048;8.468;2023-08-24T00:01:13;26.60;74.30
10538;DHT22;5317;49.048;8.468;2023-08-24T00:03:43;26.50;73.80
10538;DHT22;5317;49.048;8.468;2023-08-24T00:06:10;26.50;73.90
10538;DHT22;5317;49.048;8.468;2023-08-24T00:08:37;26.40;74.00
10538;DHT22;5317;49.048;8.468;2023-08-24T00:11:05;26.40;73.80
10538;DHT22;5317;49.048;8.468;2023-08-24T00:13:33;26.30;73.90
10538;DHT22;5317;49.048;8.468;2023-08-24T00:16:00;26.30;73.90
10538;DHT22;5317;49.048;8.468;2023-08-24T00:18:27;26.30;73.90
10538;DHT22;5317;49.048;8.468;2023-08-24T00:20:53;26.20;73.50
10538;DHT22;5317;49.048;8.468;2023-08-24T00:23:20;26.30;73.50
10538;DHT22;5317;49.048;8.468;2023-08-24T00:25:47;26.30;73.10
10538;DHT22;5317;49.048;8.468;2023-08-24T00:28:15;26.30;73.10
10538;DHT22;5317;49.048;8.468;2023-08-24T00:30:42;26.30;73.40
10538;DHT22;5317;49.048;8.468;2023-08-24T00:33:09;26.30;73.50
10538;DHT22;5317;49.048;8.468;2023-08-24T00:35:36;26.20;73.30
10538;DHT22;5317;49.048;8.468;2023-08-24T00:38:03;26.20;74.00
10538;DHT22;5317;49.048;8.468;2023-08-24T00:40:30;26.20;73.10
10538;DHT22;5317;49.048;8.468;2023-08-24T00:42:58;26.20;72.90
10538;DHT22;5317;49.048;8.468;2023-08-24T00:45:26;26.20;72.60
10538;DHT22;5317;49.048;8.468;2023-08-24T00:47:53;26.20;72.20
10538;DHT22;5317;49.048;8.468;2023-08-24T00:50:20;26.20;72.10
10538;DHT22;5317;49.048;8.468;2023-08-24T00:52:47;26.20;72.00
10538;DHT22;5317;49.048;8.468;2023-08-24T00:55:16;26.20;71.80
10538;DHT22;5317;49.048;8.468;2023-08-24T00:57:43;26.20;71.60
10538;DHT22;5317;49.048;8.468;2023-08-24T01:00:10;26.20;72.00
10538;DHT22;5317;49.048;8.468;2023-08-24T01:02:39;26.20;72.10
10538;DHT22;5317;49.048;8.468;2023-08-24T01:05:07;26.20;72.10
10538;DHT22;5317;49.048;8.468;2023-08-24T01:07:34;26.20;72.20
10538;DHT22;5317;49.048;8.468;2023-08-24T01:10:02;26.20;72.30
10538;DHT22;5317;49.048;8.468;2023-08-24T01:12:36;26.10;72.00
10538;DHT22;5317;49.048;8.468;2023-08-24T01:15:13;26.10;71.90
10538;DHT22;5317;49.048;8.468;2023-08-24T01:17:43;26.10;71.90
10538;DHT22;5317;49.048;8.468;2023-08-24T01:20:10;26.10;71.70
10538;DHT22;5317;49.048;8.468;2023-08-24T01:22:46;26.10;71.70
10538;DHT22;5317;49.048;8.468;2023-08-24T01:25:17;26.10;71.50
10538;DHT22;5317;49.048;8.468;2023-08-24T01:27:50;26.00;71.30
10538;DHT22;5317;49.048;8.468;2023-08-24T01:30:18;26.00;71.40
10538;DHT22;5317;49.048;8.468;2023-08-24T01:32:45;26.00;71.50
10538;DHT22;5317;49.048;8.468;2023-08-24T01:35:12;26.00;71.50
10538;DHT22;5317;49.048;8.468;2023-08-24T01:37:39;25.90;71.20
10538;DHT22;5317;49.048;8.468;2023-08-24T01:40:09;25.90;71.10
10538;DHT22;5317;49.048;8.468;2023-08-24T01:42:45;25.90;71.00
10538;DHT22;5317;49.048;8.468;2023-08-24T01:45:17;25.90;71.10
10538;DHT22;5317;49.048;8.468;2023-08-24T01:47:45;26.00;71.30
10538;DHT22;5317;49.048;8.468;2023-08-24T01:50:12;25.90;71.30
10538;DHT22;5317;49.048;8.468;2023-08-24T01:52:40;25.90;71.40
10538;DHT22;5317;49.048;8.468;2023-08-24T01:55:07;25.90;71.50
10538;DHT22;5317;49.048;8.468;2023-08-24T01:57:35;25.90;71.80
10538;DHT22;5317;49.048;8.468;2023-08-24T02:00:02;25.80;71.80
10538;DHT22;5317;49.048;8.468;2023-08-24T02:02:34;25.80;71.90
10538;DHT22;5317;49.048;8.468;2023-08-24T02:05:01;25.80;72.10
10538;DHT22;5317;49.048;8.468;2023-08-24T02:07:28;25.80;72.20
10538;DHT22;5317;49.048;8.468;2023-08-24T02:09:55;25.80;72.20
10538;DHT22;5317;49.048;8.468;2023-08-24T02:12:22;25.80;72.30
10538;DHT22;5317;49.048;8.468;2023-08-24T02:14:49;25.70;72.40
10538;DHT22;5317;49.048;8.468;2023-08-24T02:17:16;25.70;72.40
10538;DHT22;5317;49.048;8.468;2023-08-24T02:19:44;25.70;73.20
10538;DHT22;5317;49.048;8.468;2023-08-24T02:22:11;25.70;72.40
10538;DHT22;5317;49.048;8.468;2023-08-24T02:24:38;25.70;72.50
10538;DHT22;5317;49.048;8.468;2023-08-24T02:27:05;25.70;72.60
10538;DHT22;5317;49.048;8.468;2023-08-24T02:29:31;25.60;72.30
10538;DHT22;5317;49.048;8.468;2023-08-24T02:31:58;25.60;72.30
10538;DHT22;5317;49.048;8.468;2023-08-24T02:34:25;25.60;72.30
10538;DHT22;5317;49.048;8.468;2023-08-24T02:36:53;25.60;72.50
10538;DHT22;5317;49.048;8.468;2023-08-24T02:39:20;25.60;72.50
10538;DHT22;5317;49.048;8.468;2023-08-24T02:41:47;25.60;72.60
10538;DHT22;5317;49.048;8.468;2023-08-24T02:44:14;25.60;72.50
10538;DHT22;5317;49.048;8.468;2023-08-24T02:46:43;25.60;72.50
10538;DHT22;5317;49.048;8.468;2023-08-24T02:49:10;25.60;72.60
10538;DHT22;5317;49.048;8.468;2023-08-24T02:51:37;25.50;72.40
10538;DHT22;5317;49.048;8.468;2023-08-24T02:54:06;25.50;72.40
10538;DHT22;5317;49.048;8.468;2023-08-24T02:56:32;25.50;72.60
10538;DHT22;5317;49.048;8.468;2023-08-24T02:58:59;25.50;72.50
10538;DHT22;5317;49.048;8.468;2023-08-24T03:01:26;25.50;72.60
10538;DHT22;5317;49.048;8.468;2023-08-24T03:03:53;25.50;72.60
10538;DHT22;5317;49.048;8.468;2023-08-24T03:06:20;25.40;72.60
10538;DHT22;5317;49.048;8.468;2023-08-24T03:08:49;25.40;72.70
10538;DHT22;5317;49.048;8.468;2023-08-24T03:11:17;25.40;72.70
10538;DHT22;5317;49.048;8.468;2023-08-24T03:13:44;25.30;72.70
10538;DHT22;5317;49.048;8.468;2023-08-24T03:16:11;25.30;72.40
10538;DHT22;5317;49.048;8.468;2023-08-24T03:18:38;25.30;72.20
10538;DHT22;5317;49.048;8.468;2023-08-24T03:21:04;25.30;72.50
10538;DHT22;5317;49.048;8.468;2023-08-24T03:23:32;25.30;72.60
10538;DHT22;5317;49.048;8.468;2023-08-24T03:25:59;25.30;72.60
10538;DHT22;5317;49.048;8.468;2023-08-24T03:28:27;25.30;72.50
10538;DHT22;5317;49.048;8.468;2023-08-24T03:30:54;25.30;72.30
10538;DHT22;5317;49.048;8.468;2023-08-24T03:33:21;25.30;72.20
10538;DHT22;5317;49.048;8.468;2023-08-24T03:35:48;25.30;72.00
10538;DHT22;5317;49.048;8.468;2023-08-24T03:38:16;25.30;71.70
10538;DHT22;5317;49.048;8.468;2023-08-24T03:40:42;25.30;71.70
10538;DHT22;5317;49.048;8.468;2023-08-24T03:43:10;25.40;71.60
10538;DHT22;5317;49.048;8.468;2023-08-24T03:45:38;25.40;71.70
10538;DHT22;5317;49.048;8.468;2023-08-24T03:48:05;25.40;71.60
10538;DHT22;5317;49.048;8.468;2023-08-24T03:50:32;25.40;71.50
10538;DHT22;5317;49.048;8.468;2023-08-24T03:52:59;25.50;71.50
10538;DHT22;5317;49.048;8.468;2023-08-24T03:55:26;25.40;71.50
10538;DHT22;5317;49.048;8.468;2023-08-24T03:57:53;25.50;71.40
10538;DHT22;5317;49.048;8.468;2023-08-24T04:00:20;25.50;71.50
10538;DHT22;5317;49.048;8.468;2023-08-24T04:02:48;25.50;71.50
10538;DHT22;5317;49.048;8.468;2023-08-24T04:05:16;25.50;71.40
10538;DHT22;5317;49.048;8.468;2023-08-24T04:07:43;25.50;71.40
10538;DHT22;5317;49.048;8.468;2023-08-24T04:10:11;25.50;71.50
10538;DHT22;5317;49.048;8.468;2023-08-24T04:12:38;25.50;71.40
10538;DHT22;5317;49.048;8.468;2023-08-24T04:15:06;25.50;72.00
10538;DHT22;5317;49.048;8.468;2023-08-24T04:17:33;25.50;71.20
10538;DHT22;5317;49.048;8.468;2023-08-24T04:20:01;25.50;71.50
10538;DHT22;5317;49.048;8.468;2023-08-24T04:22:29;25.50;71.50
10538;DHT22;5317;49.048;8.468;2023-08-24T04:24:56;25.50;71.70
10538;DHT22;5317;49.048;8.468;2023-08-24T04:27:23;25.50;72.80
10538;DHT22;5317;49.048;8.468;2023-08-24T04:29:50;25.40;72.00
10538;DHT22;5317;49.048;8.468;2023-08-24T04:32:17;25.40;71.90
10538;DHT22;5317;49.048;8.468;2023-08-24T04:34:44;25.40;71.80
10538;DHT22;5317;49.048;8.468;2023-08-24T04:37:12;25.40;72.30
10538;DHT22;5317;49.048;8.468;2023-08-24T04:39:38;25.30;72.50
10538;DHT22;5317;49.048;8.468;2023-08-24T04:42:06;25.40;72.60
10538;DHT22;5317;49.048;8.468;2023-08-24T04:44:33;25.40;72.30
10538;DHT22;5317;49.048;8.468;2023-08-24T04:47:00;25.40;72.30
10538;DHT22;5317;49.048;8.468;2023-08-24T04:49:26;25.40;72.60
10538;DHT22;5317;49.048;8.468;2023-08-24T04:51:54;25.40;72.90
10538;DHT22;5317;49.048;8.468;2023-08-24T04:54:22;25.40;72.70
10538;DHT22;5317;49.048;8.468;2023-08-24T04:56:49;25.40;73.20
10538;DHT22;5317;49.048;8.468;2023-08-24T04:59:16;25.40;73.30
10538;DHT22;5317;49.048;8.468;2023-08-24T05:01:43;25.40;73.50
10538;DHT22;5317;49.048;8.468;2023-08-24T05:04:09;25.30;73.90
10538;DHT22;5317;49.048;8.468;2023-08-24T05:06:36;25.30;74.10
10538;DHT22;5317;49.048;8.468;2023-08-24T05:09:03;25.30;74.00
10538;DHT22;5317;49.048;8.468;2023-08-24T05:11:31;25.30;74.10
10538;DHT22;5317;49.048;8.468;2023-08-24T05:13:58;25.30;74.30
10538;DHT22;5317;49.048;8.468;2023-08-24T05:16:25;25.30;74.00
10538;DHT22;5317;49.048;8.468;2023-08-24T05:18:53;25.40;74.10
10538;DHT22;5317;49.048;8.468;2023-08-24T05:21:20;25.40;73.50
10538;DHT22;5317;49.048;8.468;2023-08-24T05:23:47;25.40;73.20
10538;DHT22;5317;49.048;8.468;2023-08-24T05:26:13;25.40;72.90
10538;DHT22;5317;49.048;8.468;2023-08-24T05:28:49;25.50;73.50
10538;DHT22;5317;49.048;8.468;2023-08-24T05:31:16;25.60;73.30
10538;DHT22;5317;49.048;8.468;2023-08-24T05:33:43;25.60;73.00
10538;DHT22;5317;49.048;8.468;2023-08-24T05:36:09;25.70;72.40
10538;DHT22;5317;49.048;8.468;2023-08-24T05:38:36;25.70;72.40
10538;DHT22;5317;49.048;8.468;2023-08-24T05:41:03;25.70;72.50
10538;DHT22;5317;49.048;8.468;2023-08-24T05:43:30;25.70;72.50
10538;DHT22;5317;49.048;8.468;2023-08-24T05:45:58;25.80;73.30
10538;DHT22;5317;49.048;8.468;2023-08-24T05:48:25;25.80;72.50
10538;DHT22;5317;49.048;8.468;2023-08-24T05:50:52;25.80;72.40
10538;DHT22;5317;49.048;8.468;2023-08-24T05:53:19;25.80;72.30
10538;DHT22;5317;49.048;8.468;2023-08-24T05:55:45;25.90;72.30
10538;DHT22;5317;49.048;8.468;2023-08-24T05:58:13;25.90;71.90
10538;DHT22;5317;49.048;8.468;2023-08-24T06:00:39;25.90;72.20
10538;DHT22;5317;49.048;8.468;2023-08-24T06:03:08;25.90;71.90
10538;DHT22;5317;49.048;8.468;2023-08-24T06:05:35;25.90;71.80
10538;DHT22;5317;49.048;8.468;2023-08-24T06:08:02;25.90;71.80
10538;DHT22;5317;49.048;8.468;2023-08-24T06:10:29;25.90;71.80
10538;DHT22;5317;49.048;8.468;2023-08-24T06:12:56;25.90;72.30
10538;DHT22;5317;49.048;8.468;2023-08-24T06:15:23;25.90;71.60
10538;DHT22;5317;49.048;8.468;2023-08-24T06:17:53;25.90;71.30
10538;DHT22;5317;49.048;8.468;2023-08-24T06:20:21;26.00;71.00
10538;DHT22;5317;49.048;8.468;2023-08-24T06:22:48;25.90;71.10
10538;DHT22;5317;49.048;8.468;2023-08-24T06:25:15;26.00;71.30
10538;DHT22;5317;49.048;8.468;2023-08-24T06:27:42;26.00;71.00
10538;DHT22;5317;49.048;8.468;2023-08-24T06:30:10;25.90;70.70
10538;DHT22;5317;49.048;8.468;2023-08-24T06:32:37;26.00;70.90
10538;DHT22;5317;49.048;8.468;2023-08-24T06:35:05;26.00;70.70
10538;DHT22;5317;49.048;8.468;2023-08-24T06:37:33;26.10;70.40
10538;DHT22;5317;49.048;8.468;2023-08-24T06:40:00;26.10;70.00
10538;DHT22;5317;49.048;8.468;2023-08-24T06:42:28;26.10;69.70
10538;DHT22;5317;49.048;8.468;2023-08-24T06:44:55;26.10;69.10
10538;DHT22;5317;49.048;8.468;2023-08-24T06:47:22;26.10;68.90
10538;DHT22;5317;49.048;8.468;2023-08-24T06:49:50;26.10;68.90
10538;DHT22;5317;49.048;8.468;2023-08-24T06:52:17;26.20;68.50
10538;DHT22;5317;49.048;8.468;2023-08-24T06:54:46;26.20;68.40
10538;DHT22;5317;49.048;8.468;2023-08-24T06:57:14;26.30;67.70
10538;DHT22;5317;49.048;8.468;2023-08-24T06:59:41;26.30;67.40
10538;DHT22;5317;49.048;8.468;2023-08-24T07:02:08;26.40;67.20
10538;DHT22;5317;49.048;8.468;2023-08-24T07:04:34;26.40;67.00
10538;DHT22;5317;49.048;8.468;2023-08-24T07:07:02;26.40;67.00
10538;DHT22;5317;49.048;8.468;2023-08-24T07:09:29;26.40;66.60
10538;DHT22;5317;49.048;8.468;2023-08-24T07:11:57;26.50;66.30
10538;DHT22;5317;49.048;8.468;2023-08-24T07:14:24;26.50;66.70
10538;DHT22;5317;49.048;8.468;2023-08-24T07:16:51;26.60;66.60
10538;DHT22;5317;49.048;8.468;2023-08-24T07:19:18;26.70;66.40
10538;DHT22;5317;49.048;8.468;2023-08-24T07:21:46;26.80;66.50
10538;DHT22;5317;49.048;8.468;2023-08-24T07:24:13;26.90;66.50
10538;DHT22;5317;49.048;8.468;2023-08-24T07:26:40;26.90;66.30
10538;DHT22;5317;49.048;8.468;2023-08-24T07:29:09;27.00;65.40
10538;DHT22;5317;49.048;8.468;2023-08-24T07:31:36;27.10;65.40
10538;DHT22;5317;49.048;8.468;2023-08-24T07:34:03;27.20;65.40
10538;DHT22;5317;49.048;8.468;2023-08-24T07:36:30;27.30;66.10
10538;DHT22;5317;49.048;8.468;2023-08-24T07:38:57;27.30;64.70
10538;DHT22;5317;49.048;8.468;2023-08-24T07:41:24;27.40;64.60
10538;DHT22;5317;49.048;8.468;2023-08-24T07:43:51;27.50;63.70
10538;DHT22;5317;49.048;8.468;2023-08-24T07:46:19;27.60;63.50
10538;DHT22;5317;49.048;8.468;2023-08-24T07:48:46;27.70;64.30
10538;DHT22;5317;49.048;8.468;2023-08-24T07:51:13;27.70;63.90
10538;DHT22;5317;49.048;8.468;2023-08-24T07:53:40;27.80;64.10
10538;DHT22;5317;49.048;8.468;2023-08-24T07:56:06;27.90;63.90
10538;DHT22;5317;49.048;8.468;2023-08-24T07:58:33;28.00;64.40
10538;DHT22;5317;49.048;8.468;2023-08-24T08:01:00;28.10;63.40
10538;DHT22;5317;49.048;8.468;2023-08-24T08:03:28;28.20;63.20
10538;DHT22;5317;49.048;8.468;2023-08-24T08:05:56;28.20;62.50
10538;DHT22;5317;49.048;8.468;2023-08-24T08:08:24;28.20;62.10
10538;DHT22;5317;49.048;8.468;2023-08-24T08:10:57;28.30;62.00
10538;DHT22;5317;49.048;8.468;2023-08-24T08:13:25;28.30;62.70
10538;DHT22;5317;49.048;8.468;2023-08-24T08:15:52;28.40;62.40
10538;DHT22;5317;49.048;8.468;2023-08-24T08:18:19;28.50;62.60
10538;DHT22;5317;49.048;8.468;2023-08-24T08:20:51;28.50;61.70
10538;DHT22;5317;49.048;8.468;2023-08-24T08:23:18;28.60;61.90
10538;DHT22;5317;49.048;8.468;2023-08-24T08:25:45;28.70;62.50
10538;DHT22;5317;49.048;8.468;2023-08-24T08:28:12;28.80;61.30
10538;DHT22;5317;49.048;8.468;2023-08-24T08:30:39;28.80;61.20
10538;DHT22;5317;49.048;8.468;2023-08-24T08:33:06;28.90;61.70
10538;DHT22;5317;49.048;8.468;2023-08-24T08:35:33;29.00;61.90
10538;DHT22;5317;49.048;8.468;2023-08-24T08:38:01;29.10;61.10
10538;DHT22;5317;49.048;8.468;2023-08-24T08:40:30;29.20;60.00
10538;DHT22;5317;49.048;8.468;2023-08-24T08:42:57;29.20;59.90
10538;DHT22;5317;49.048;8.468;2023-08-24T08:45:25;29.30;60.30
10538;DHT22;5317;49.048;8.468;2023-08-24T08:47:55;29.40;60.10
10538;DHT22;5317;49.048;8.468;2023-08-24T08:50:22;29.50;60.30
10538;DHT22;5317;49.048;8.468;2023-08-24T08:52:49;29.60;60.20
10538;DHT22;5317;49.048;8.468;2023-08-24T08:55:18;29.70;60.20
10538;DHT22;5317;49.048;8.468;2023-08-24T08:57:47;29.80;60.40
10538;DHT22;5317;49.048;8.468;2023-08-24T09:00:15;29.90;60.10
10538;DHT22;5317;49.048;8.468;2023-08-24T09:02:44;30.10;59.70
10538;DHT22;5317;49.048;8.468;2023-08-24T09:05:11;30.10;58.80
10538;DHT22;5317;49.048;8.468;2023-08-24T09:07:39;30.20;59.30
10538;DHT22;5317;49.048;8.468;2023-08-24T09:10:07;30.30;59.60
10538;DHT22;5317;49.048;8.468;2023-08-24T09:12:35;30.40;59.70
10538;DHT22;5317;49.048;8.468;2023-08-24T09:15:03;30.60;59.70
10538;DHT22;5317;49.048;8.468;2023-08-24T09:17:31;30.70;59.20
10538;DHT22;5317;49.048;8.468;2023-08-24T09:19:59;30.70;58.10
10538;DHT22;5317;49.048;8.468;2023-08-24T09:22:27;30.80;58.30
10538;DHT22;5317;49.048;8.468;2023-08-24T09:24:53;30.90;58.20
10538;DHT22;5317;49.048;8.468;2023-08-24T09:27:22;31.00;58.60
10538;DHT22;5317;49.048;8.468;2023-08-24T09:29:50;31.00;58.30
10538;DHT22;5317;49.048;8.468;2023-08-24T09:32:22;31.10;57.60
10538;DHT22;5317;49.048;8.468;2023-08-24T09:34:49;31.20;57.20
10538;DHT22;5317;49.048;8.468;2023-08-24T09:37:16;31.30;58.00
10538;DHT22;5317;49.048;8.468;2023-08-24T09:39:44;31.40;57.80
10538;DHT22;5317;49.048;8.468;2023-08-24T09:42:11;31.50;57.20
10538;DHT22;5317;49.048;8.468;2023-08-24T09:44:46;31.70;57.70
10538;DHT22;5317;49.048;8.468;2023-08-24T09:47:13;31.80;57.80
10538;DHT22;5317;49.048;8.468;2023-08-24T09:49:41;32.00;57.80
10538;DHT22;5317;49.048;8.468;2023-08-24T09:52:08;32.10;57.60
10538;DHT22;5317;49.048;8.468;2023-08-24T09:54:37;32.20;57.30
10538;DHT22;5317;49.048;8.468;2023-08-24T09:57:06;32.30;57.20
10538;DHT22;5317;49.048;8.468;2023-08-24T09:59:34;32.40;56.90
10538;DHT22;5317;49.048;8.468;2023-08-24T10:02:09;32.60;56.70
10538;DHT22;5317;49.048;8.468;2023-08-24T10:04:41;32.70;56.60
10538;DHT22;5317;49.048;8.468;2023-08-24T10:07:11;32.90;56.40
10538;DHT22;5317;49.048;8.468;2023-08-24T10:09:57;33.00;56.20
10538;DHT22;5317;49.048;8.468;2023-08-24T10:12:27;33.10;55.80
10538;DHT22;5317;49.048;8.468;2023-08-24T10:14:59;33.20;56.20
10538;DHT22;5317;49.048;8.468;2023-08-24T10:17:28;33.30;54.80
10538;DHT22;5317;49.048;8.468;2023-08-24T10:19:56;33.40;54.50
10538;DHT22;5317;49.048;8.468;2023-08-24T10:22:23;33.50;55.60
10538;DHT22;5317;49.048;8.468;2023-08-24T10:24:51;33.60;55.50
10538;DHT22;5317;49.048;8.468;2023-08-24T10:27:21;33.60;55.80
10538;DHT22;5317;49.048;8.468;2023-08-24T10:29:49;33.70;55.40
10538;DHT22;5317;49.048;8.468;2023-08-24T10:32:15;33.80;55.50
10538;DHT22;5317;49.048;8.468;2023-08-24T10:34:44;33.80;55.10
10538;DHT22;5317;49.048;8.468;2023-08-24T10:37:11;33.90;55.70
10538;DHT22;5317;49.048;8.468;2023-08-24T10:39:44;34.00;55.00
10538;DHT22;5317;49.048;8.468;2023-08-24T10:42:11;34.10;55.00
10538;DHT22;5317;49.048;8.468;2023-08-24T10:44:40;34.30;55.40
10538;DHT22;5317;49.048;8.468;2023-08-24T10:47:18;34.40;54.20
10538;DHT22;5317;49.048;8.468;2023-08-24T10:49:58;34.50;55.00
10538;DHT22;5317;49.048;8.468;2023-08-24T10:52:30;34.60;53.70
10538;DHT22;5317;49.048;8.468;2023-08-24T10:55:00;34.70;53.10
10538;DHT22;5317;49.048;8.468;2023-08-24T10:57:36;34.80;53.20
10538;DHT22;5317;49.048;8.468;2023-08-24T11:00:05;34.80;51.60
10538;DHT22;5317;49.048;8.468;2023-08-24T11:02:42;34.90;52.90
10538;DHT22;5317;49.048;8.468;2023-08-24T11:05:17;35.00;52.50
10538;DHT22;5317;49.048;8.468;2023-08-24T11:07:49;35.10;52.20
10538;DHT22;5317;49.048;8.468;2023-08-24T11:10:17;35.20;52.30
10538;DHT22;5317;49.048;8.468;2023-08-24T11:13:06;35.40;51.80
10538;DHT22;5317;49.048;8.468;2023-08-24T11:15:36;35.40;50.20
10538;DHT22;5317;49.048;8.468;2023-08-24T11:18:14;35.50;51.50
10538;DHT22;5317;49.048;8.468;2023-08-24T11:20:44;35.60;51.50
10538;DHT22;5317;49.048;8.468;2023-08-24T11:23:12;35.70;50.50
10538;DHT22;5317;49.048;8.468;2023-08-24T11:25:38;35.70;50.30
10538;DHT22;5317;49.048;8.468;2023-08-24T11:28:05;35.80;50.70
10538;DHT22;5317;49.048;8.468;2023-08-24T11:30:33;35.90;51.00
10538;DHT22;5317;49.048;8.468;2023-08-24T11:33:00;36.00;50.90
10538;DHT22;5317;49.048;8.468;2023-08-24T11:35:28;36.20;50.90
10538;DHT22;5317;49.048;8.468;2023-08-24T11:37:56;36.30;50.80
10538;DHT22;5317;49.048;8.468;2023-08-24T11:40:23;36.50;49.70
10538;DHT22;5317;49.048;8.468;2023-08-24T11:42:53;36.60;50.70
10538;DHT22;5317;49.048;8.468;2023-08-24T11:45:21;36.70;49.70
10538;DHT22;5317;49.048;8.468;2023-08-24T11:47:48;36.80;48.90
10538;DHT22;5317;49.048;8.468;2023-08-24T11:50:17;36.80;49.40
10538;DHT22;5317;49.048;8.468;2023-08-24T11:52:43;36.90;48.20
10538;DHT22;5317;49.048;8.468;2023-08-24T11:55:12;37.00;48.00
10538;DHT22;5317;49.048;8.468;2023-08-24T11:57:41;37.00;48.80
10538;DHT22;5317;49.048;8.468;2023-08-24T12:00:09;37.10;48.90
10538;DHT22;5317;49.048;8.468;2023-08-24T12:02:40;37.20;48.90
10538;DHT22;5317;49.048;8.468;2023-08-24T12:05:06;37.40;49.10
10538;DHT22;5317;49.048;8.468;2023-08-24T12:07:34;37.50;48.80
10538;DHT22;5317;49.048;8.468;2023-08-24T12:10:01;37.40;48.60
10538;DHT22;5317;49.048;8.468;2023-08-24T12:12:30;37.40;48.40
10538;DHT22;5317;49.048;8.468;2023-08-24T12:14:56;37.40;48.40
10538;DHT22;5317;49.048;8.468;2023-08-24T12:17:24;37.30;48.70
10538;DHT22;5317;49.048;8.468;2023-08-24T12:19:59;37.30;49.00
10538;DHT22;5317;49.048;8.468;2023-08-24T12:22:26;37.30;48.10
10538;DHT22;5317;49.048;8.468;2023-08-24T12:24:53;37.40;47.70
10538;DHT22;5317;49.048;8.468;2023-08-24T12:27:22;37.40;48.50
10538;DHT22;5317;49.048;8.468;2023-08-24T12:29:50;37.50;48.80
10538;DHT22;5317;49.048;8.468;2023-08-24T12:32:17;37.60;48.90
10538;DHT22;5317;49.048;8.468;2023-08-24T12:34:46;37.60;48.60
10538;DHT22;5317;49.048;8.468;2023-08-24T12:37:12;37.70;48.60
10538;DHT22;5317;49.048;8.468;2023-08-24T12:39:40;37.60;48.10
10538;DHT22;5317;49.048;8.468;2023-08-24T12:42:07;37.70;48.10
10538;DHT22;5317;49.048;8.468;2023-08-24T12:44:33;37.70;48.60
10538;DHT22;5317;49.048;8.468;2023-08-24T12:47:03;37.80;48.70
10538;DHT22;5317;49.048;8.468;2023-08-24T12:49:30;37.80;48.00
10538;DHT22;5317;49.048;8.468;2023-08-24T12:51:57;37.80;48.00
10538;DHT22;5317;49.048;8.468;2023-08-24T12:54:24;37.90;47.70
10538;DHT22;5317;49.048;8.468;2023-08-24T12:56:51;37.90;46.30
10538;DHT22;5317;49.048;8.468;2023-08-24T12:59:18;38.00;47.10
10538;DHT22;5317;49.048;8.468;2023-08-24T13:01:45;38.10;47.70
10538;DHT22;5317;49.048;8.468;2023-08-24T13:04:14;38.10;47.20
10538;DHT22;5317;49.048;8.468;2023-08-24T13:06:40;38.10;47.00
10538;DHT22;5317;49.048;8.468;2023-08-24T13:09:07;38.20;47.40
10538;DHT22;5317;49.048;8.468;2023-08-24T13:11:35;38.30;47.60
10538;DHT22;5317;49.048;8.468;2023-08-24T13:14:02;38.50;47.60
10538;DHT22;5317;49.048;8.468;2023-08-24T13:16:28;38.60;46.80
10538;DHT22;5317;49.048;8.468;2023-08-24T13:18:56;38.70;46.30
10538;DHT22;5317;49.048;8.468;2023-08-24T13:21:24;38.80;47.00
10538;DHT22;5317;49.048;8.468;2023-08-24T13:23:51;39.00;46.80
10538;DHT22;5317;49.048;8.468;2023-08-24T13:26:18;39.10;46.40
10538;DHT22;5317;49.048;8.468;2023-08-24T13:28:46;39.20;46.70
10538;DHT22;5317;49.048;8.468;2023-08-24T13:31:13;39.30;46.50
10538;DHT22;5317;49.048;8.468;2023-08-24T13:33:40;39.50;46.10
10538;DHT22;5317;49.048;8.468;2023-08-24T13:36:07;39.50;45.60
10538;DHT22;5317;49.048;8.468;2023-08-24T13:38:35;39.60;45.90
10538;DHT22;5317;49.048;8.468;2023-08-24T13:41:02;39.50;45.50
10538;DHT22;5317;49.048;8.468;2023-08-24T13:43:29;39.50;46.00
10538;DHT22;5317;49.048;8.468;2023-08-24T13:45:56;39.40;45.90
10538;DHT22;5317;49.048;8.468;2023-08-24T13:48:23;39.20;46.50
10538;DHT22;5317;49.048;8.468;2023-08-24T13:50:51;39.00;45.80
10538;DHT22;5317;49.048;8.468;2023-08-24T13:53:18;38.80;46.30
10538;DHT22;5317;49.048;8.468;2023-08-24T13:55:46;38.50;46.40
10538;DHT22;5317;49.048;8.468;2023-08-24T13:58:13;38.30;46.50
10538;DHT22;5317;49.048;8.468;2023-08-24T14:00:40;38.10;46.90
10538;DHT22;5317;49.048;8.468;2023-08-24T14:03:07;37.80;47.40
10538;DHT22;5317;49.048;8.468;2023-08-24T14:05:38;37.60;47.80
10538;DHT22;5317;49.048;8.468;2023-08-24T14:08:05;37.40;48.60
10538;DHT22;5317;49.048;8.468;2023-08-24T14:10:33;37.20;48.40
10538;DHT22;5317;49.048;8.468;2023-08-24T14:13:01;37.00;48.50
10538;DHT22;5317;49.048;8.468;2023-08-24T14:15:28;36.70;48.40
10538;DHT22;5317;49.048;8.468;2023-08-24T14:17:55;36.40;48.80
10538;DHT22;5317;49.048;8.468;2023-08-24T14:20:22;36.20;49.70
10538;DHT22;5317;49.048;8.468;2023-08-24T14:22:49;35.90;50.20
10538;DHT22;5317;49.048;8.468;2023-08-24T14:25:16;35.60;53.60
10538;DHT22;5317;49.048;8.468;2023-08-24T14:27:43;34.90;55.00
10538;DHT22;5317;49.048;8.468;2023-08-24T14:30:13;34.60;58.20
10538;DHT22;5317;49.048;8.468;2023-08-24T14:32:40;34.20;58.80
10538;DHT22;5317;49.048;8.468;2023-08-24T14:35:08;34.00;59.80
10538;DHT22;5317;49.048;8.468;2023-08-24T14:37:35;33.80;61.20
10538;DHT22;5317;49.048;8.468;2023-08-24T14:40:04;33.60;62.60
10538;DHT22;5317;49.048;8.468;2023-08-24T14:42:31;33.40;63.40
10538;DHT22;5317;49.048;8.468;2023-08-24T14:44:58;33.30;63.30
10538;DHT22;5317;49.048;8.468;2023-08-24T14:47:26;33.20;63.50
10538;DHT22;5317;49.048;8.468;2023-08-24T14:49:53;33.10;64.80
10538;DHT22;5317;49.048;8.468;2023-08-24T14:52:19;33.00;65.20
10538;DHT22;5317;49.048;8.468;2023-08-24T14:54:47;32.90;65.80
10538;DHT22;5317;49.048;8.468;2023-08-24T14:57:14;32.80;66.30
10538;DHT22;5317;49.048;8.468;2023-08-24T14:59:41;32.80;66.30
10538;DHT22;5317;49.048;8.468;2023-08-24T15:02:08;32.70;66.00
10538;DHT22;5317;49.048;8.468;2023-08-24T15:04:36;32.60;66.60
10538;DHT22;5317;49.048;8.468;2023-08-24T15:07:03;32.60;66.70
10538;DHT22;5317;49.048;8.468;2023-08-24T15:09:31;32.50;67.60
10538;DHT22;5317;49.048;8.468;2023-08-24T15:11:57;32.50;67.80
10538;DHT22;5317;49.048;8.468;2023-08-24T15:14:30;32.50;67.40
10538;DHT22;5317;49.048;8.468;2023-08-24T15:16:57;32.50;67.50
10538;DHT22;5317;49.048;8.468;2023-08-24T15:19:23;32.40;67.60
10538;DHT22;5317;49.048;8.468;2023-08-24T15:21:52;32.50;68.70
10538;DHT22;5317;49.048;8.468;2023-08-24T15:24:18;32.50;68.00
10538;DHT22;5317;49.048;8.468;2023-08-24T15:26:45;32.70;68.00
10538;DHT22;5317;49.048;8.468;2023-08-24T15:29:13;32.80;67.20
10538;DHT22;5317;49.048;8.468;2023-08-24T15:31:41;33.00;67.20
10538;DHT22;5317;49.048;8.468;2023-08-24T15:34:08;33.00;65.80
10538;DHT22;5317;49.048;8.468;2023-08-24T15:36:34;33.10;65.70
10538;DHT22;5317;49.048;8.468;2023-08-24T15:39:03;33.10;65.90
10538;DHT22;5317;49.048;8.468;2023-08-24T15:41:30;33.20;66.40
10538;DHT22;5317;49.048;8.468;2023-08-24T15:43:57;33.20;65.40
10538;DHT22;5317;49.048;8.468;2023-08-24T15:46:24;33.10;65.50
10538;DHT22;5317;49.048;8.468;2023-08-24T15:48:51;33.10;66.00